Nearby METAR Reports


RPLC - Angeles/Pampanga, Philippines
Distance from station: S 166km
Updated: Fri, 23-Feb-2018 6:00am PHT
Mostly cloudy
Mostly cloudy
 Wind from W
Wind: W 4 km/h
Temperature: 25°C
Dew Point: 21°C
Humidity: 79%
Barometer: 1013 hPa
Clouds: Mostly cloudy
Visibility: 10 km
Cloud details: Few Clouds 610 m
Mostly cloudy 9144 m
2018/02/22 22:00 RPLC 222200Z 26002KT 9999 FEW020 BKN300 25/21 Q1013 NOSIG RMK A2991
RPLI - Laoag Intl Airport, Philippines
Distance from station: N 171km
Updated: Fri, 23-Feb-2018 6:00am PHT
Few Clouds
Few Clouds
 Wind from ENE
Wind: ENE 7 km/h
Temperature: 24°C
Dew Point: 21°C
Humidity: 83%
Barometer: 1012 hPa
Clouds: Few Clouds
Visibility: 8 km
Cloud details: Few Clouds 579 m
2018/02/22 22:00 RPLI 222200Z 06004KT 8000 FEW019 24/21 Q1012 NOSIG RMK A2988
 
RPLB - Olongapo/Subic, Philippines
Distance from station: S 205km
Updated: Fri, 23-Feb-2018 6:00am PHT
Partly cloudy
Partly cloudy
 Wind from varies
Wind: varies 6 km/h
Temperature: 23°C
Dew Point: 20°C
Humidity: 83%
Barometer: 1012 hPa
Clouds: Partly cloudy
Visibility: 10 km
Cloud details: Few Clouds 610 m
Partly cloudy 9144 m
2018/02/22 22:00 RPLB 222200Z VRB03KT 9999 FEW020 SCT300 23/20 Q1012 NOSIG RMK A2988
RPLL - Ninoy Aquino Intl Airport, Philippines
Distance from station: SSE 247km
Updated: Fri, 23-Feb-2018 6:00am PHT
Few Clouds
Few Clouds
 Wind from calm
Wind: Calm
Temperature: 24°C
Dew Point: 23°C
Humidity: 94%
Barometer: 1012 hPa
Clouds: Few Clouds
Visibility: 10 km
Cloud details: Few Clouds 701 m
2018/02/22 22:00 RPLL 222200Z 00000KT 9999 FEW023 24/23 Q1012 NOSIG RMK A2988